Latest Weather Observations for Albury

IDN60801

Issued at 4:22 am EST Wednesday 17 July 2019 (issued every 10 minutes, with the page automatically refreshed every 10 minutes)

About weather observations | Map of weather stations | Latest weather observations for NSW | Other Formats
Station Details ID: 072160 Name: ALBURY AIRPORT AWS Lat: -36.07 Lon: 146.95 Height: 163.5 m
Data from the previous 72 hours. | See also: Recent months at Albury
Date/Time
EST
Temp
°C
App
Temp
°C
Dew
Point
°C
Rel
Hum
%
Delta-T
°C
Wind Press
QNH
hPa
Press
MSL
hPa
Rain since
9am
mm
Dir  Spd
km/h
Gust
km/h
Spd
kts
Gust
kts
17/04:00am 7.2 6.0 6.3 94 0.4 W 2 6 1 3 1021.0 1021.4 0.0
17/03:30am 7.1 6.2 6.2 94 0.4 CALM 0 0 0 0 1021.3 1021.7 0.0
17/03:00am 6.9 6.0 6.2 95 0.3 CALM 0 2 0 1 1021.5 1021.9 0.0
17/02:30am 6.5 3.8 5.8 95 0.3 W 9 9 5 5 1021.5 1021.9 0.0
17/02:00am 6.6 4.0 5.9 95 0.3 W 9 9 5 5 1021.7 1022.1 0.0
17/01:30am 5.8 2.9 4.8 93 0.4 NW 9 13 5 7 1021.9 1022.3 0.0
17/01:00am 6.2 3.4 5.2 93 0.4 WNW 9 11 5 6 1022.0 1022.4 0.0
17/12:30am 6.4 3.6 5.0 91 0.6 WNW 9 11 5 6 1022.0 1022.4 0.0
17/12:00am 7.3 4.5 5.3 87 0.9 WNW 9 13 5 7 1022.3 1022.6 0.0
 
Date/Time
EST
Temp
°C
App
Temp
°C
Dew
Point
°C
Rel
Hum
%
Delta-T
°C
Wind Press
QNH
hPa
Press
MSL
hPa
Rain since
9am
mm
Dir  Spd
km/h
Gust
km/h
Spd
kts
Gust
kts
16/11:30pm 8.4 6.3 6.5 88 0.9 NNW 7 9 4 5 1022.7 1023.0 0.0
16/11:00pm 8.5 5.9 6.3 86 1.0 WNW 9 17 5 9 1022.7 1023.0 0.0
16/10:30pm 9.0 5.4 6.6 85 1.1 WNW 15 20 8 11 1022.7 1023.0 0.0
16/10:00pm 9.2 6.7 6.6 84 1.2 WNW 9 15 5 8 1022.8 1023.1 0.0
16/09:30pm 9.6 6.9 7.4 86 1.1 WNW 11 17 6 9 1022.9 1023.2 0.0
16/09:00pm 9.8 6.3 7.2 84 1.2 WNW 15 20 8 11 1023.0 1023.3 0.0
16/08:30pm 10.5 7.0 7.4 81 1.5 W 15 20 8 11 1022.8 1023.1 0.0
16/08:00pm 11.1 7.7 7.8 80 1.6 W 15 24 8 13 1023.0 1023.3 0.0
16/07:30pm 11.2 7.9 7.9 80 1.6 W 15 19 8 10 1022.9 1023.2 0.0
16/07:00pm 11.0 6.8 7.5 79 1.7 W 19 22 10 12 1022.6 1022.9 0.0
16/06:30pm 11.3 6.5 7.4 77 1.9 W 22 28 12 15 1022.3 1022.6 0.0
16/06:00pm 11.7 6.8 7.0 73 2.3 W 22 32 12 17 1022.0 1022.4 0.0
16/05:30pm 12.0 7.7 7.1 72 2.4 W 19 28 10 15 1021.8 1022.2 0.0
16/05:00pm 12.1 7.9 7.6 74 2.2 W 19 26 10 14 1022.0 1022.4 0.0
16/04:30pm 12.5 8.3 7.6 72 2.4 W 19 24 10 13 1021.9 1022.3 0.0
16/04:00pm 12.9 9.2 8.0 72 2.4 W 17 22 9 12 1021.5 1021.9 0.0
16/03:30pm 12.2 8.3 8.5 78 1.8 W 19 24 10 13 1021.8 1022.2 0.0
16/03:23pm 12.0 8.8 8.5 79 1.7 W 15 20 8 11 1021.8 1022.2 0.0
16/03:00pm 11.8 8.2 8.3 79 1.7 WSW 17 22 9 12 1021.8 1022.2 0.0
16/02:37pm 12.0 7.9 8.5 79 1.7 W 20 30 11 16 1021.6 1022.0 0.0
16/02:30pm 12.1 8.1 8.4 78 1.8 W 19 26 10 14 1021.5 1021.9 0.0
16/02:05pm 12.0 9.5 8.3 78 1.8 WSW 11 15 6 8 1021.8 1022.2 0.0
16/02:00pm 12.0 9.2 8.5 79 1.7 W 13 19 7 10 1021.8 1022.2 0.0
16/01:30pm 11.3 9.6 8.3 82 1.5 SW 7 11 4 6 1022.0 1022.4 0.0
16/01:12pm 11.3 9.0 9.0 86 1.2 WSW 11 17 6 9 1022.2 1022.5 0.0
16/01:00pm 11.1 7.0 8.5 84 1.3 W 20 32 11 17 1022.2 1022.5 0.0
16/12:58pm 11.1 6.6 8.7 85 1.2 W 22 32 12 17 1022.2 1022.5 0.0
16/12:48pm 12.1 8.1 8.2 77 1.9 W 19 28 10 15 1022.2 1022.5 0.0
16/12:30pm 12.3 9.0 8.0 75 2.1 W 15 20 8 11 1022.4 1022.7 0.0
16/12:17pm 12.2 8.6 8.3 77 1.9 W 17 24 9 13 1022.6 1022.9 0.0
16/12:04pm 11.7 7.7 8.4 80 1.6 WNW 19 24 10 13 1022.7 1023.0 0.0
16/12:00pm 11.6 7.5 7.9 78 1.8 WNW 19 22 10 12 1022.7 1023.0 0.0
16/11:30am 11.8 7.7 7.7 76 2.0 W 19 28 10 15 1023.0 1023.3 0.0
16/11:00am 12.0 8.3 7.9 76 2.0 W 17 24 9 13 1023.1 1023.4 0.0
16/10:30am 11.0 7.7 8.2 83 1.4 W 15 20 8 11 1023.5 1023.8 0.0
16/10:00am 10.5 7.6 8.1 85 1.2 W 13 19 7 10 1023.4 1023.7 0.0
16/09:30am 10.2 7.7 8.3 88 0.9 WSW 11 15 6 8 1023.2 1023.5 0.0
16/09:00am 9.4 6.4 7.5 88 0.9 W 13 17 7 9 1023.0 1023.3 0.0
16/08:35am 9.2 6.9 7.6 90 0.8 WNW 9 11 5 6 1023.1 1023.4 0.0
16/08:30am 9.2 6.9 7.6 90 0.8 NW 9 15 5 8 1023.1 1023.4 0.0
16/08:07am 9.0 6.4 7.6 91 0.7 NNW 11 13 6 7 1022.9 1023.2 0.0
16/08:00am 9.0 6.4 7.6 91 0.7 NW 11 15 6 8 1022.8 1023.1 0.0
16/07:30am 8.8 6.5 7.6 92 0.6 W 9 15 5 8 1022.9 1023.2 0.0
16/07:00am 8.8 6.5 7.6 92 0.6 WNW 9 11 5 6 1022.6 1022.9 0.0
16/06:52am 9.0 6.7 7.6 91 0.7 WNW 9 13 5 7 1022.5 1022.8 0.0
16/06:31am 9.1 6.5 7.9 92 0.6 W 11 15 6 8 1022.4 1022.7 0.0
16/06:30am 9.1 6.5 7.9 92 0.6 WNW 11 15 6 8 1022.4 1022.7 0.0
16/06:00am 8.9 6.7 7.7 92 0.6 NW 9 11 5 6 1021.9 1022.3 0.0
16/05:41am 8.9 6.3 7.7 92 0.6 W 11 15 6 8 1021.8 1022.2 0.0
16/05:30am 8.8 5.7 7.3 90 0.7 WNW 13 15 7 8 1021.7 1022.1 0.0
16/05:00am 9.6 7.4 8.0 90 0.8 NNW 9 11 5 6 1021.7 1022.1 0.0
16/04:30am 9.6 7.5 8.2 91 0.7 N 9 13 5 7 1021.6 1022.0 0.0
16/04:00am 9.6 9.2 8.4 92 0.6 CALM 0 0 0 0 1021.7 1022.1 0.0
16/03:30am 9.7 8.9 8.1 90 0.8 WSW 2 6 1 3 1022.0 1022.4 0.0
16/03:00am 9.7 7.6 8.3 91 0.7 W 9 11 5 6 1022.3 1022.6 0.0
16/02:30am 9.8 6.5 8.2 90 0.8 W 15 19 8 10 1022.5 1022.8 0.0
16/02:00am 9.9 6.3 8.2 89 0.8 W 17 22 9 12 1022.8 1023.1 0.0
16/01:30am 10.1 7.2 8.2 88 0.9 W 13 17 7 9 1022.8 1023.1 0.0
16/01:00am 10.1 7.2 8.0 87 1.0 W 13 19 7 10 1023.1 1023.4 0.0
16/12:30am 10.2 6.9 8.0 86 1.1 WNW 15 24 8 13 1023.3 1023.6 0.0
16/12:00am 10.4 7.5 8.0 85 1.2 WNW 13 19 7 10 1023.5 1023.8 0.0
 
Date/Time
EST
Temp
°C
App
Temp
°C
Dew
Point
°C
Rel
Hum
%
Delta-T
°C
Wind Press
QNH
hPa
Press
MSL
hPa
Rain since
9am
mm
Dir  Spd
km/h
Gust
km/h
Spd
kts
Gust
kts
15/11:30pm 10.5 7.9 7.7 83 1.4 WNW 11 22 6 12 1023.5 1023.8 0.0
15/11:00pm 10.5 7.9 7.6 82 1.4 W 11 15 6 8 1023.5 1023.8 0.0
15/10:30pm 10.7 8.1 7.6 81 1.5 W 11 17 6 9 1023.7 1024.0 0.0
15/10:17pm 10.8 7.4 7.5 80 1.6 W 15 20 8 11 1023.6 1023.9 0.0
15/10:00pm 10.8 7.3 7.3 79 1.7 W 15 22 8 12 1023.6 1023.9 0.0
15/09:30pm 10.7 7.9 6.8 77 1.9 W 11 20 6 11 1023.9 1024.2 0.0
15/09:00pm 10.9 7.7 6.8 76 1.9 WSW 13 20 7 11 1023.6 1023.9 0.0
15/08:30pm 10.8 7.2 6.7 76 2.0 W 15 20 8 11 1023.7 1024.0 0.0
15/08:00pm 10.9 7.2 6.5 74 2.1 W 15 20 8 11 1023.6 1023.9 0.0
15/07:30pm 10.8 6.3 6.2 73 2.2 W 19 22 10 12 1023.3 1023.6 0.0
15/07:00pm 10.6 7.6 6.2 74 2.1 W 11 19 6 10 1023.2 1023.5 0.0
15/06:30pm 9.8 6.0 5.8 76 1.9 W 15 20 8 11 1023.0 1023.3 0.0
15/06:00pm 10.0 6.2 5.6 74 2.0 W 15 20 8 11 1022.6 1022.9 0.0
15/05:30pm 11.0 6.3 5.3 68 2.6 W 19 24 10 13 1022.2 1022.5 0.0
15/05:00pm 11.3 7.8 5.4 67 2.7 WSW 13 19 7 10 1021.6 1022.0 0.0
15/04:30pm 12.2 7.4 5.6 64 3.1 WSW 20 26 11 14 1021.4 1021.8 0.0
15/04:00pm 12.9 8.3 5.6 61 3.4 W 19 24 10 13 1021.1 1021.5 0.0
15/03:30pm 13.1 8.3 5.8 61 3.5 WSW 20 28 11 15 1021.0 1021.4 0.0
15/03:00pm 13.2 8.0 5.6 60 3.6 W 22 32 12 17 1020.9 1021.3 0.0
15/02:30pm 12.9 6.8 4.8 58 3.8 WSW 26 33 14 18 1020.5 1020.9 0.0
15/02:00pm 13.5 8.7 4.9 56 4.0 WSW 19 28 10 15 1020.4 1020.8 0.0
15/01:30pm 12.5 7.5 4.5 58 3.7 WSW 20 32 11 17 1020.4 1020.8 0.0
15/01:00pm 12.9 7.7 3.8 54 4.1 WSW 20 30 11 16 1020.7 1021.1 0.0
15/12:30pm 13.2 7.8 4.4 55 4.1 WSW 22 30 12 16 1020.7 1021.1 0.0
15/12:00pm 13.4 9.1 5.3 58 3.8 WSW 17 26 9 14 1020.8 1021.2 0.0
15/11:30am 12.5 7.8 5.2 61 3.4 SW 19 30 10 16 1021.2 1021.6 0.0
15/11:00am 11.9 7.8 6.4 69 2.6 W 17 22 9 12 1021.1 1021.5 0.0
15/10:30am 11.1 6.6 6.0 71 2.4 W 19 28 10 15 1021.0 1021.4 0.0
15/10:00am 10.4 6.0 6.4 76 1.9 W 19 26 10 14 1021.0 1021.4 0.0
15/09:30am 9.7 4.6 6.1 78 1.7 W 22 30 12 16 1020.6 1021.0 0.0
15/09:00am 9.1 4.5 5.8 80 1.5 W 19 24 10 13 1020.1 1020.5 1.8
15/08:30am 8.3 3.5 5.8 84 1.1 W 20 24 11 13 1019.9 1020.3 1.8
15/08:00am 7.9 3.1 5.4 84 1.1 W 20 26 11 14 1019.5 1019.9 1.8
15/07:52am 8.0 2.4 5.5 84 1.1 W 24 33 13 18 1019.3 1019.6 1.8
15/07:30am 8.0 4.5 5.6 85 1.1 W 13 24 7 13 1019.0 1019.3 1.8
15/07:00am 8.2 4.0 5.8 85 1.1 W 17 20 9 11 1018.7 1019.0 1.8
15/06:38am 7.9 4.1 5.9 87 0.9 WNW 15 20 8 11 1018.1 1018.4 1.8
15/06:30am 7.7 3.5 5.5 86 1.0 WNW 17 22 9 12 1018.0 1018.3 1.8
15/06:00am 8.2 2.7 5.7 84 1.1 W 24 35 13 19 1017.3 1017.6 1.8
15/05:30am 8.3 3.7 5.8 84 1.1 W 19 30 10 16 1016.8 1017.1 1.8
15/05:15am 8.3 2.8 5.8 84 1.1 WNW 24 32 13 17 1016.4 1016.7 1.8
15/05:00am 8.5 3.7 5.8 83 1.2 WNW 20 32 11 17 1016.5 1016.8 1.8
15/04:30am 8.6 4.8 5.9 83 1.2 WNW 15 20 8 11 1016.1 1016.4 1.8
15/04:00am 8.8 4.2 5.7 81 1.4 W 19 28 10 15 1015.8 1016.1 1.8
15/03:30am 8.5 3.4 6.1 85 1.1 W 22 32 12 17 1015.4 1015.8 1.8
15/03:00am 8.6 2.0 6.1 84 1.2 W 30 43 16 23 1014.8 1015.2 1.8
15/02:49am 8.5 1.5 5.8 83 1.2 W 32 50 17 27 1014.4 1014.8 1.8
15/02:30am 8.7 2.4 5.8 82 1.3 W 28 37 15 20 1014.8 1015.2 1.8
15/02:00am 9.1 3.5 5.5 78 1.6 W 24 32 13 17 1015.2 1015.6 1.8
15/01:30am 9.2 2.8 5.4 77 1.7 W 28 35 15 19 1015.1 1015.5 1.8
15/01:02am 9.2 2.8 5.4 77 1.7 W 28 48 15 26 1014.8 1015.2 1.8
15/01:00am 9.1 3.1 5.5 78 1.6 W 26 48 14 26 1014.9 1015.3 1.8
15/12:30am 9.5 2.4 5.3 75 1.9 WNW 32 44 17 24 1014.8 1015.2 1.8
15/12:00am 9.6 3.2 5.4 75 1.9 WNW 28 43 15 23 1015.2 1015.6 1.8
 
Date/Time
EST
Temp
°C
App
Temp
°C
Dew
Point
°C
Rel
Hum
%
Delta-T
°C
Wind Press
QNH
hPa
Press
MSL
hPa
Rain since
9am
mm
Dir  Spd
km/h
Gust
km/h
Spd
kts
Gust
kts
14/11:30pm 9.6 3.7 6.0 78 1.7 WNW 26 41 14 22 1015.2 1015.6 1.8
14/11:12pm 9.6 3.0 6.1 79 1.6 WNW 30 44 16 24 1015.2 1015.6 1.8
14/11:00pm 9.7 2.7 6.2 79 1.6 WNW 32 50 17 27 1015.4 1015.8 1.8
14/10:30pm 9.6 2.6 6.7 82 1.4 W 33 52 18 28 1015.4 1015.8 1.8
14/10:00pm 10.1 3.3 6.8 80 1.6 WNW 32 52 17 28 1015.3 1015.7 1.8
14/09:35pm 10.2 3.4 6.9 80 1.6 W 32 50 17 27 1015.6 1016.0 1.8
14/09:30pm 10.2 2.8 6.9 80 1.6 W 35 50 19 27 1015.8 1016.1 1.8
14/09:07pm 10.1 2.8 7.0 81 1.5 W 35 54 19 29 1016.0 1016.3 1.8
14/09:00pm 10.1 2.8 7.2 82 1.4 WNW 35 52 19 28 1016.1 1016.4 1.8
14/08:30pm 9.9 4.0 7.5 85 1.2 WNW 28 39 15 21 1016.3 1016.6 1.8
14/08:00pm 9.7 3.1 7.6 87 1.0 WNW 32 44 17 24 1016.6 1016.9 1.8
14/07:30pm 9.7 3.0 7.5 86 1.1 WNW 32 50 17 27 1016.7 1017.0 1.8
14/07:26pm 9.6 3.3 7.4 86 1.1 WNW 30 50 16 27 1016.9 1017.2 1.8
14/07:01pm 9.7 3.0 7.5 86 1.1 WNW 32 50 17 27 1017.2 1017.5 1.8
14/07:00pm 9.6 3.3 7.5 87 1.0 WNW 30 44 16 24 1017.4 1017.7 1.8
14/06:43pm 9.5 2.6 7.4 87 1.0 NW 33 50 18 27 1017.7 1018.0 1.8
14/06:38pm 9.4 2.7 7.5 88 0.9 NW 32 50 17 27 1017.9 1018.2 1.8
14/06:30pm 9.3 3.4 7.4 88 0.9 WNW 28 44 15 24 1017.8 1018.1 1.8
14/06:00pm 9.1 5.3 7.4 89 0.8 W 17 35 9 19 1018.2 1018.5 1.6
14/05:46pm 8.9 4.5 7.4 90 0.7 WNW 20 37 11 20 1018.0 1018.3 1.6
14/05:30pm 8.7 4.3 7.2 90 0.7 NW 20 30 11 16 1018.2 1018.5 1.2
14/05:27pm 8.7 3.9 7.2 90 0.7 NW 22 32 12 17 1018.2 1018.5 1.2
14/05:00pm 8.9 3.3 7.2 89 0.8 WNW 26 37 14 20 1018.3 1018.6 1.2
14/04:30pm 8.7 4.4 7.2 90 0.7 NW 19 28 10 15 1018.7 1019.0 1.0
14/04:00pm 8.8 4.2 6.6 86 1.0 WNW 20 32 11 17 1019.2 1019.5 1.0
14/03:30pm 8.6 3.6 6.6 87 0.9 WNW 22 32 12 17 1019.5 1019.9 1.0
14/03:16pm 8.4 3.1 6.7 89 0.8 NW 24 35 13 19 1019.9 1020.3 1.0
14/03:00pm 7.9 3.9 6.5 91 0.6 WNW 17 22 9 12 1020.2 1020.6 1.0
14/02:30pm 7.4 3.7 6.3 93 0.5 WNW 15 20 8 11 1020.6 1021.0 0.8
14/02:00pm 7.1 2.9 5.9 92 0.5 WNW 17 24 9 13 1020.9 1021.3 0.4
14/01:30pm 7.3 2.7 5.8 90 0.7 WNW 19 28 10 15 1021.4 1021.8 0.0
14/01:23pm 7.2 2.3 5.3 88 0.9 NW 20 28 11 15 1021.5 1021.9 0.0
14/01:04pm 7.4 2.4 4.7 83 1.2 NW 20 32 11 17 1021.6 1022.0 0.0
14/01:00pm 7.3 2.5 4.8 84 1.1 NW 19 28 10 15 1021.7 1022.1 0.0
14/12:53pm 7.3 2.6 5.0 85 1.0 NW 19 24 10 13 1021.9 1022.3 0.0
14/12:30pm 7.0 3.4 5.0 87 0.9 NNW 13 22 7 12 1022.8 1023.1 0.0
14/12:10pm 6.4 2.3 4.4 87 0.9 NW 15 22 8 12 1023.6 1023.9 0.0
14/12:00pm 6.3 1.9 4.8 90 0.7 NW 17 24 9 13 1024.0 1024.3 0.0
14/11:39am 6.0 2.2 4.0 87 0.9 NW 13 17 7 9 1024.4 1024.7 0.0
14/11:30am 6.2 1.6 3.7 84 1.1 NW 17 30 9 16 1024.6 1025.0 0.0
14/11:00am 6.0 1.3 3.2 82 1.2 NNW 17 22 9 12 1024.9 1025.3 0.0
14/10:50am 6.2 2.7 3.4 82 1.2 NW 11 17 6 9 1024.9 1025.3 0.0
14/10:30am 6.1 2.9 3.3 82 1.2 NNW 9 17 5 9 1024.9 1025.3 0.0
14/10:00am 5.4 2.6 3.4 87 0.8 WSW 7 9 4 5 1024.9 1025.3 0.0
14/09:30am 5.2 2.0 3.1 86 0.9 W 9 13 5 7 1024.8 1025.2 0.0
14/09:11am 4.9 2.1 3.1 88 0.7 WNW 7 11 4 6 1024.8 1025.2 0.0
14/09:00am 4.7 1.5 2.9 88 0.7 W 9 13 5 7 1024.8 1025.2 0.6
14/08:30am 4.5 1.3 3.0 90 0.6 NW 9 11 5 6 1024.7 1025.1 0.6
14/08:00am 4.1 0.5 2.8 91 0.5 NW 11 13 6 7 1024.6 1025.0 0.6
14/07:30am 3.8 1.5 2.6 92 0.5 WNW 4 11 2 6 1024.5 1024.9 0.6
14/07:00am 3.8 0.5 2.5 91 0.5 NW 9 11 5 6 1024.2 1024.5 0.6
14/06:56am 3.8 0.5 2.5 91 0.5 NW 9 11 5 6 1024.2 1024.5 0.6
14/06:30am 3.9 1.0 2.7 92 0.5 NNW 7 9 4 5 1023.8 1024.1 0.6
14/06:22am 4.0 1.1 2.8 92 0.5 NNW 7 9 4 5 1023.7 1024.0 0.6
14/06:00am 3.9 1.6 2.6 91 0.5 N 4 6 2 3 1023.6 1023.9 0.6
14/05:30am 4.0 1.3 2.7 91 0.5 NW 6 9 3 5 1023.5 1023.8 0.6
14/05:00am 4.0 0.7 2.7 91 0.5 NW 9 11 5 6 1023.5 1023.8 0.6
14/04:30am 4.1 1.3 2.9 92 0.5 NNW 7 9 4 5 1023.6 1023.9 0.6

Other formats

Comma delimited format used in spreadsheet applications
http://www.bom.gov.au/fwo/IDN60801/IDN60801.95896.axf

JavaScript Object Notation format (JSON) in row-major order
http://www.bom.gov.au/fwo/IDN60801/IDN60801.95896.json

Data quality

Most of these data are generated automatically and are frequently updated. Quality checks on data are not normally performed. It is possible for incorrect values to appear. Refer to information at About Latest Weather Observations and please check the disclaimer before using these data.